createdAt,value
2019-04-05T00:01:34.422Z,7.37
2019-04-05T00:04:03.464Z,7.36
2019-04-05T00:06:32.494Z,7.36
2019-04-05T00:09:01.204Z,7.40
2019-04-05T00:11:30.228Z,7.37
2019-04-05T00:13:59.045Z,7.39
2019-04-05T00:16:27.887Z,7.41
2019-04-05T00:18:56.820Z,7.41
2019-04-05T00:21:25.801Z,7.43
2019-04-05T00:23:54.515Z,7.43
2019-04-05T00:26:23.296Z,7.45
2019-04-05T00:28:52.403Z,7.48
2019-04-05T00:31:21.363Z,7.49
2019-04-05T00:33:51.713Z,7.51
2019-04-05T00:36:20.432Z,7.51
2019-04-05T00:38:49.139Z,7.50
2019-04-05T00:41:17.923Z,7.49
2019-04-05T00:43:47.077Z,7.50
2019-04-05T00:46:15.782Z,7.48
2019-04-05T00:48:44.859Z,7.49
2019-04-05T00:51:13.577Z,7.49
2019-04-05T00:53:42.443Z,7.47
2019-04-05T00:56:11.517Z,7.47
2019-04-05T00:58:40.682Z,7.46
2019-04-05T01:01:09.883Z,7.45
2019-04-05T01:06:40.453Z,7.41
2019-04-05T01:09:09.468Z,7.40
2019-04-05T01:11:38.426Z,7.41
2019-04-05T01:14:07.212Z,7.42
2019-04-05T01:16:36.325Z,7.41
2019-04-05T01:19:05.306Z,7.41
2019-04-05T01:21:39.417Z,7.41
2019-04-05T01:24:09.634Z,7.40
2019-04-05T01:26:41.504Z,7.40
2019-04-05T01:29:10.701Z,7.40
2019-04-05T01:31:39.539Z,7.41
2019-04-05T01:34:08.563Z,7.42
2019-04-05T01:36:37.272Z,7.42
2019-04-05T01:39:06.946Z,7.40
2019-04-05T01:41:36.740Z,7.40
2019-04-05T01:44:05.610Z,7.39
2019-04-05T01:46:34.965Z,7.40
2019-04-05T01:49:04.013Z,7.38
2019-04-05T01:51:33.314Z,7.39
2019-04-05T01:54:02.685Z,7.41
2019-04-05T01:56:31.812Z,7.41
2019-04-05T01:59:00.855Z,7.41
2019-04-05T02:01:30.248Z,7.42
2019-04-05T02:03:59.383Z,7.43
2019-04-05T02:06:28.670Z,7.44
2019-04-05T02:08:57.539Z,7.44
2019-04-05T02:11:35.287Z,7.44
2019-04-05T02:14:04.251Z,7.42
2019-04-05T02:16:33.265Z,7.39
2019-04-05T02:19:02.371Z,7.37
2019-04-05T02:21:31.401Z,7.38
2019-04-05T02:24:00.514Z,6.97
2019-04-05T02:26:29.552Z,7.35
2019-04-05T02:28:58.658Z,7.35
2019-04-05T02:31:27.695Z,7.33
2019-04-05T02:33:56.482Z,7.31
2019-04-05T02:36:25.363Z,7.29
2019-04-05T02:38:54.398Z,7.28
2019-04-05T02:41:24.944Z,7.30
2019-04-05T02:43:56.555Z,7.27
2019-04-05T02:46:26.633Z,7.24
2019-04-05T02:48:57.202Z,7.22
2019-04-05T02:51:28.167Z,7.22
2019-04-05T02:53:58.677Z,7.22
2019-04-05T02:59:43.728Z,7.19
2019-04-05T03:02:12.684Z,7.14
2019-04-05T03:04:42.129Z,7.11
2019-04-05T03:07:11.253Z,7.10
2019-04-05T03:09:40.606Z,7.09
2019-04-05T03:12:09.718Z,7.07
2019-04-05T03:14:40.255Z,7.05
2019-04-05T03:17:11.399Z,7.04
2019-04-05T03:19:41.590Z,7.01
2019-04-05T03:22:13.628Z,6.99
2019-04-05T03:24:46.408Z,6.97
2019-04-05T03:27:23.440Z,6.97
2019-04-05T03:29:53.440Z,7.00
2019-04-05T03:32:22.866Z,7.01
2019-04-05T03:34:52.331Z,7.02
2019-04-05T03:37:22.208Z,7.01
2019-04-05T03:39:51.586Z,7.02
2019-04-05T03:42:21.034Z,7.03
2019-04-05T03:44:50.238Z,7.06
2019-04-05T03:47:19.583Z,7.07
2019-04-05T03:49:48.752Z,7.09
2019-04-05T03:52:17.528Z,7.10
2019-04-05T03:54:47.576Z,7.11
2019-04-05T03:57:17.073Z,7.09
2019-04-05T03:59:45.860Z,7.10
2019-04-05T04:02:14.957Z,7.12
2019-04-05T04:04:43.741Z,7.14
2019-04-05T04:07:13.236Z,7.17
2019-04-05T04:09:41.970Z,7.20
2019-04-05T04:12:11.267Z,7.22
2019-04-05T04:14:40.566Z,7.24
2019-04-05T04:17:12.569Z,7.21
2019-04-05T04:19:40.908Z,7.22
2019-04-05T04:22:28.057Z,7.25
2019-04-05T04:24:57.141Z,7.28
2019-04-05T04:27:26.846Z,7.29
2019-04-05T04:29:56.042Z,7.31
2019-04-05T04:32:24.917Z,7.33
2019-04-05T04:34:55.276Z,7.33
2019-04-05T04:37:24.541Z,7.34
2019-04-05T04:39:54.959Z,7.33
2019-04-05T04:42:24.911Z,7.35
2019-04-05T04:44:54.521Z,7.34
2019-04-05T04:47:26.919Z,7.34
2019-04-05T04:49:57.945Z,7.36
2019-04-05T04:52:31.215Z,7.37
2019-04-05T04:54:59.660Z,7.37
2019-04-05T04:57:29.019Z,7.38
2019-04-05T04:59:58.319Z,7.37
2019-04-05T05:02:27.336Z,7.39
2019-04-05T05:04:56.554Z,7.39
2019-04-05T05:07:25.783Z,7.40
2019-04-05T05:09:54.874Z,7.41
2019-04-05T05:12:25.219Z,7.42
2019-04-05T05:14:54.806Z,7.41
2019-04-05T05:17:23.749Z,7.42
2019-04-05T05:19:53.044Z,7.42
2019-04-05T05:22:21.907Z,7.42
2019-04-05T05:24:50.839Z,7.43
2019-04-05T05:27:20.085Z,7.45
2019-04-05T05:29:49.252Z,7.47
2019-04-05T05:32:18.602Z,7.49
2019-04-05T05:34:47.361Z,7.51
2019-04-05T05:37:16.375Z,7.51
2019-04-05T05:39:45.609Z,7.52
2019-04-05T05:42:14.755Z,7.53
2019-04-05T05:44:43.619Z,7.56
2019-04-05T05:47:12.681Z,7.58
2019-04-05T05:49:41.704Z,7.58
2019-04-05T05:52:11.298Z,7.61
2019-04-05T05:54:40.282Z,7.63
2019-04-05T05:57:09.321Z,7.64
2019-04-05T05:59:38.040Z,7.65
2019-04-05T06:02:07.328Z,7.69
2019-04-05T06:04:36.715Z,7.72
2019-04-05T06:07:05.593Z,7.71
2019-04-05T06:09:34.534Z,7.74
2019-04-05T06:12:03.254Z,7.75
2019-04-05T06:14:32.060Z,7.79
2019-04-05T06:17:01.004Z,7.81
2019-04-05T06:19:30.178Z,7.82
2019-04-05T06:21:58.886Z,7.85
2019-04-05T06:24:27.845Z,7.88
2019-04-05T06:26:56.898Z,7.90
2019-04-05T06:29:25.611Z,7.89
2019-04-05T06:31:54.315Z,7.90
2019-04-05T06:34:23.225Z,7.92
2019-04-05T06:36:51.952Z,7.93
2019-04-05T06:39:21.137Z,7.94
2019-04-05T06:41:49.870Z,7.91
2019-04-05T06:44:18.679Z,7.92
2019-04-05T06:46:47.388Z,7.94
2019-04-05T06:49:16.334Z,7.98
2019-04-05T06:51:45.702Z,7.99
2019-04-05T06:54:14.399Z,7.35
2019-04-05T06:56:43.355Z,8.05
2019-04-05T06:59:12.066Z,8.06
2019-04-05T07:01:41.040Z,8.07
2019-04-05T07:04:10.009Z,8.09
2019-04-05T07:06:38.953Z,8.08
2019-04-05T07:09:08.088Z,8.10
2019-04-05T07:11:36.897Z,8.13
2019-04-05T07:14:05.981Z,8.19
2019-04-05T07:16:34.993Z,8.23
2019-04-05T07:19:04.259Z,8.25
2019-04-05T07:21:33.209Z,8.28
2019-04-05T07:24:02.184Z,8.33
2019-04-05T07:26:31.144Z,8.39
2019-04-05T07:29:00.103Z,8.44
2019-04-05T07:31:29.063Z,8.48
2019-04-05T07:33:58.190Z,8.54
2019-04-05T07:36:27.232Z,8.59
2019-04-05T07:38:55.962Z,8.62
2019-04-05T07:41:24.928Z,8.67
2019-04-05T07:43:53.914Z,8.75
2019-04-05T07:46:22.910Z,8.78
2019-04-05T07:48:51.863Z,8.76
2019-04-05T07:51:22.771Z,8.79
2019-04-05T07:53:51.336Z,8.88
2019-04-05T07:56:20.371Z,8.95
2019-04-05T07:58:49.230Z,9.04
2019-04-05T08:01:18.229Z,9.17
2019-04-05T08:03:47.207Z,9.28
2019-04-05T08:06:16.843Z,9.33
2019-04-05T08:09:07.765Z,9.34
2019-04-05T08:11:38.133Z,9.30
2019-04-05T08:14:07.376Z,9.22
2019-04-05T08:16:36.417Z,9.12
2019-04-05T08:19:05.604Z,9.16
2019-04-05T08:21:34.559Z,9.19
2019-04-05T08:24:03.616Z,9.23
2019-04-05T08:26:32.743Z,9.25
2019-04-05T08:29:01.643Z,9.27
2019-04-05T08:31:30.581Z,9.33
2019-04-05T08:34:00.812Z,9.39
2019-04-05T08:36:32.597Z,9.36
2019-04-05T08:39:00.120Z,9.34
2019-04-05T08:41:29.173Z,9.39
2019-04-05T08:43:58.043Z,9.43
2019-04-05T08:46:26.844Z,9.42
2019-04-05T08:48:55.689Z,9.42
2019-04-05T08:51:24.475Z,9.42
2019-04-05T08:53:53.920Z,9.48
2019-04-05T08:56:22.868Z,9.54
2019-04-05T08:58:51.597Z,9.61
2019-04-05T09:01:20.607Z,9.69
2019-04-05T09:03:49.726Z,9.83
2019-04-05T09:06:18.631Z,9.89
2019-04-05T09:08:47.658Z,9.98
2019-04-05T09:11:16.645Z,9.98
2019-04-05T09:13:45.918Z,9.98
2019-04-05T09:16:14.758Z,10.05
2019-04-05T09:18:43.459Z,10.13
2019-04-05T09:21:12.418Z,10.17
2019-04-05T09:23:41.395Z,10.31
2019-04-05T09:26:10.488Z,10.43
2019-04-05T09:28:40.086Z,10.54
2019-04-05T09:31:09.115Z,10.59
2019-04-05T09:33:38.252Z,10.55
2019-04-05T09:36:07.457Z,10.50
2019-04-05T09:38:36.420Z,10.38
2019-04-05T09:41:05.632Z,10.34
2019-04-05T09:43:35.128Z,10.32
2019-04-05T09:46:04.217Z,10.22
2019-04-05T09:48:33.244Z,10.20
2019-04-05T09:51:02.225Z,10.25
2019-04-05T09:53:31.319Z,10.34
2019-04-05T09:56:00.728Z,10.44
2019-04-05T09:58:29.676Z,10.51
2019-04-05T10:00:58.743Z,10.73
2019-04-05T10:03:27.552Z,10.88
2019-04-05T10:05:56.748Z,11.13
2019-04-05T10:08:25.553Z,11.44
2019-04-05T10:10:54.985Z,11.68
2019-04-05T10:13:23.692Z,11.99
2019-04-05T10:15:52.727Z,12.35
2019-04-05T10:18:21.688Z,12.55
2019-04-05T10:20:50.655Z,12.27
2019-04-05T10:23:19.802Z,12.10
2019-04-05T10:25:48.726Z,12.12
2019-04-05T10:28:17.733Z,12.32
2019-04-05T10:30:46.985Z,12.78
2019-04-05T10:33:15.795Z,13.03
2019-04-05T10:35:44.862Z,13.06
2019-04-05T10:38:13.830Z,13.17
2019-04-05T10:40:42.847Z,13.17
2019-04-05T10:43:11.818Z,12.83
2019-04-05T10:45:40.976Z,12.66
2019-04-05T10:48:10.090Z,12.49
2019-04-05T10:50:39.023Z,12.35
2019-04-05T10:53:08.252Z,12.40
2019-04-05T10:55:37.069Z,12.52
2019-04-05T10:58:06.356Z,12.66
2019-04-05T11:00:35.407Z,12.70
2019-04-05T11:03:04.197Z,12.74
2019-04-05T11:05:33.292Z,12.81
2019-04-05T11:08:02.254Z,13.03
2019-04-05T11:10:30.961Z,13.12
2019-04-05T11:12:59.662Z,13.53
2019-04-05T11:15:28.819Z,14.27
2019-04-05T11:17:59.118Z,14.65
2019-04-05T11:20:27.928Z,14.57
2019-04-05T11:22:56.635Z,14.27
2019-04-05T11:25:25.603Z,14.04
2019-04-05T11:27:54.576Z,13.88
2019-04-05T11:30:44.516Z,14.00
2019-04-05T11:33:13.744Z,14.52
2019-04-05T11:35:42.727Z,15.14
2019-04-05T11:38:12.695Z,15.34
2019-04-05T11:40:41.970Z,15.54
2019-04-05T11:43:10.845Z,15.61
2019-04-05T11:45:39.931Z,15.55
2019-04-05T11:48:08.901Z,15.59
2019-04-05T11:50:37.936Z,15.92
2019-04-05T11:53:06.800Z,16.22
2019-04-05T11:55:36.629Z,16.36
2019-04-05T11:58:05.735Z,16.44
2019-04-05T12:00:46.792Z,16.12
2019-04-05T12:03:15.885Z,15.64
2019-04-05T12:05:45.163Z,15.64
2019-04-05T12:08:13.901Z,14.95
2019-04-05T12:10:43.036Z,14.76
2019-04-05T12:13:12.136Z,14.60
2019-04-05T12:15:42.446Z,14.40
2019-04-05T12:18:11.409Z,14.26
2019-04-05T12:20:49.140Z,14.17
2019-04-05T12:23:10.568Z,14.08
2019-04-05T12:25:39.687Z,14.09
2019-04-05T12:28:10.600Z,14.17
2019-04-05T12:30:40.027Z,14.08
2019-04-05T12:33:14.190Z,14.10
2019-04-05T12:35:39.933Z,14.10
2019-04-05T12:38:08.890Z,14.08
2019-04-05T12:40:40.310Z,14.05
2019-04-05T12:43:12.472Z,13.82
2019-04-05T12:45:39.243Z,13.85
2019-04-05T12:48:09.750Z,13.85
2019-04-05T12:50:38.715Z,13.87
2019-04-05T12:53:07.868Z,13.90
2019-04-05T12:55:37.258Z,13.87
2019-04-05T12:58:06.460Z,13.92
2019-04-05T13:00:35.606Z,13.86
2019-04-05T13:03:04.469Z,13.70
2019-04-05T13:05:33.433Z,13.85
2019-04-05T13:08:02.415Z,14.04
2019-04-05T13:10:31.208Z,13.81
2019-04-05T13:13:01.923Z,13.69
2019-04-05T13:15:31.052Z,13.85
2019-04-05T13:18:01.303Z,13.85
2019-04-05T13:20:30.798Z,14.28
2019-04-05T13:23:04.438Z,14.31
2019-04-05T13:25:30.647Z,14.38
2019-04-05T13:27:59.714Z,14.28
2019-04-05T13:30:28.763Z,14.25
2019-04-05T13:32:57.490Z,14.14
2019-04-05T13:35:26.937Z,14.09
2019-04-05T13:37:55.950Z,13.94
2019-04-05T13:40:25.001Z,13.88
2019-04-05T13:42:53.794Z,13.90
2019-04-05T13:45:22.787Z,13.94
2019-04-05T13:47:52.613Z,13.96
2019-04-05T13:50:21.439Z,13.98
2019-04-05T13:52:50.379Z,13.89
2019-04-05T13:55:19.417Z,13.87
2019-04-05T13:57:48.378Z,13.83
2019-04-05T14:00:18.540Z,13.83
2019-04-05T14:02:50.126Z,13.81
2019-04-05T14:05:18.448Z,13.84
2019-04-05T14:07:48.081Z,13.82
2019-04-05T14:10:17.276Z,13.96
2019-04-05T14:12:46.941Z,14.04
2019-04-05T14:15:15.812Z,13.98
2019-04-05T14:17:45.122Z,14.00
2019-04-05T14:20:18.562Z,13.96
2019-04-05T14:22:46.214Z,13.94
2019-04-05T14:25:15.228Z,13.98
2019-04-05T14:27:43.946Z,13.94
2019-04-05T14:30:13.761Z,14.00
2019-04-05T14:32:42.862Z,14.03
2019-04-05T14:35:11.966Z,14.10
2019-04-05T14:37:40.685Z,14.10
2019-04-05T14:40:10.694Z,14.18
2019-04-05T14:42:39.739Z,14.25
2019-04-05T14:45:08.928Z,14.25
2019-04-05T14:47:37.728Z,14.09
2019-04-05T14:50:07.172Z,14.00
2019-04-05T14:52:36.320Z,13.99
2019-04-05T14:55:05.700Z,13.92
2019-04-05T14:57:36.418Z,13.93
2019-04-05T15:00:06.118Z,13.96
2019-04-05T15:02:34.878Z,14.03
2019-04-05T15:05:04.016Z,14.03
2019-04-05T15:07:33.009Z,14.05
2019-04-05T15:10:03.721Z,14.05
2019-04-05T15:12:32.834Z,14.00
2019-04-05T15:15:01.725Z,13.91
2019-04-05T15:17:30.583Z,13.89
2019-04-05T15:19:59.564Z,13.86
2019-04-05T15:22:28.546Z,13.82
2019-04-05T15:24:57.269Z,13.75
2019-04-05T15:27:26.256Z,13.70
2019-04-05T15:29:55.738Z,13.62
2019-04-05T15:32:26.106Z,13.62
2019-04-05T15:34:56.613Z,13.56
2019-04-05T15:37:25.777Z,13.54
2019-04-05T15:39:54.771Z,13.53
2019-04-05T15:42:23.952Z,13.51
2019-04-05T15:44:59.556Z,13.42
2019-04-05T15:47:28.534Z,13.42
2019-04-05T15:49:57.631Z,13.38
2019-04-05T15:52:30.121Z,13.35
2019-04-05T17:55:52.321Z,13.27
2019-04-05T17:58:22.698Z,13.27
2019-04-05T18:00:51.681Z,10.78
2019-04-05T18:03:20.797Z,10.77
2019-04-05T18:05:49.883Z,10.75
2019-04-05T18:08:19.083Z,10.75
2019-04-05T18:10:48.043Z,10.74
2019-04-05T18:13:17.084Z,10.72
2019-04-05T18:15:52.267Z,10.72
2019-04-05T18:18:16.942Z,10.71
2019-04-05T18:20:55.808Z,10.72
2019-04-05T18:23:24.866Z,10.72
2019-04-05T18:25:46.909Z,10.73
2019-04-05T18:28:15.902Z,10.75
2019-04-05T18:30:44.912Z,10.75
2019-04-05T18:33:13.839Z,10.78
2019-04-05T18:35:42.825Z,10.78
2019-04-05T18:38:11.928Z,10.79
2019-04-05T18:40:40.735Z,10.78
2019-04-05T18:43:09.456Z,10.76
2019-04-05T18:45:38.548Z,10.77
2019-04-05T18:48:07.645Z,10.78
2019-04-05T18:50:36.522Z,10.75
2019-04-05T18:53:05.646Z,10.73
2019-04-05T18:55:34.626Z,10.74
2019-04-05T18:58:03.417Z,10.74
2019-04-05T19:00:32.517Z,10.73
2019-04-05T19:03:01.412Z,10.70
2019-04-05T19:05:30.363Z,10.69
2019-04-05T19:07:59.339Z,10.02
2019-04-05T19:10:36.875Z,10.67
2019-04-05T19:12:59.482Z,10.67
2019-04-05T19:15:28.771Z,10.65
2019-04-05T19:17:57.823Z,10.65
2019-04-05T19:20:26.685Z,10.64
2019-04-05T19:22:55.679Z,10.62
2019-04-05T19:25:24.711Z,10.59
2019-04-05T19:27:53.677Z,10.59
2019-04-05T19:50:30.691Z,10.48
2019-04-05T19:52:59.470Z,10.44
2019-04-05T19:55:28.438Z,10.43
2019-04-05T19:57:57.561Z,10.43
2019-04-05T20:00:26.618Z,10.41
2019-04-05T20:02:55.580Z,10.39
2019-04-05T20:05:24.278Z,10.39
2019-04-05T20:07:53.299Z,10.37
2019-04-05T20:10:22.588Z,10.35
2019-04-05T20:12:51.525Z,10.33
2019-04-05T20:15:20.492Z,10.30
2019-04-05T20:17:49.682Z,10.28
2019-04-05T20:20:18.658Z,10.26
2019-04-05T20:22:47.628Z,10.26
2019-04-05T20:25:16.742Z,10.27
2019-04-05T20:27:45.676Z,10.28
2019-04-05T20:30:14.801Z,10.24
2019-04-05T20:32:43.766Z,10.25
2019-04-05T20:35:14.080Z,10.23
2019-04-05T20:37:42.795Z,10.18
2019-04-05T20:40:12.207Z,10.15
2019-04-05T20:42:41.152Z,10.09
2019-04-05T20:45:10.381Z,10.08
2019-04-05T20:47:39.216Z,10.08
2019-04-05T20:50:08.486Z,10.08
2019-04-05T20:52:37.460Z,10.07
2019-04-05T20:55:07.440Z,10.05
2019-04-05T20:57:36.525Z,10.03
2019-04-05T21:00:07.841Z,10.02
2019-04-05T21:02:36.751Z,10.00
2019-04-05T21:05:05.803Z,9.97
2019-04-05T21:07:34.776Z,9.98
2019-04-05T21:10:03.900Z,9.98
2019-04-05T21:12:32.612Z,10.01
2019-04-05T21:15:01.649Z,10.01
2019-04-05T21:17:30.610Z,9.99
2019-04-05T21:19:59.382Z,9.99
2019-04-05T21:22:28.336Z,9.99
2019-04-05T21:24:57.047Z,9.96
2019-04-05T21:27:25.987Z,9.94
2019-04-05T21:29:54.947Z,9.90
2019-04-05T21:32:23.920Z,9.88
2019-04-05T21:34:52.870Z,9.88
2019-04-05T21:37:22.831Z,9.88
2019-04-05T21:39:51.850Z,9.83
2019-04-05T21:42:20.789Z,9.78
2019-04-05T21:44:49.734Z,9.75
2019-04-05T21:47:18.796Z,9.70
2019-04-05T21:49:48.013Z,9.65
2019-04-05T21:52:17.180Z,9.58
2019-04-05T21:54:47.781Z,9.50
2019-04-05T21:57:18.036Z,9.40
2019-04-05T21:59:48.619Z,9.33
2019-04-05T22:02:18.033Z,9.23
2019-04-05T22:04:46.964Z,9.16
2019-04-05T22:07:16.026Z,9.09
2019-04-05T22:09:45.633Z,9.02
2019-04-05T22:12:14.767Z,8.93
2019-04-05T22:14:43.924Z,8.87
2019-04-05T22:17:13.205Z,8.79
2019-04-05T22:19:42.414Z,8.75
2019-04-05T22:22:11.680Z,8.72
2019-04-05T22:24:40.877Z,8.74
2019-04-05T22:27:10.162Z,8.77
2019-04-05T22:29:39.246Z,8.81
2019-04-05T22:32:08.369Z,8.84
2019-04-05T22:34:37.507Z,8.88
2019-04-05T22:37:06.431Z,8.90
2019-04-05T22:39:35.487Z,8.92
2019-04-05T22:42:04.333Z,8.92
2019-04-05T22:44:39.874Z,8.94
2019-04-05T22:47:04.534Z,8.95
2019-04-05T22:49:34.512Z,8.97
2019-04-05T22:52:03.632Z,8.97
2019-04-05T22:54:33.250Z,8.99
2019-04-05T22:57:02.307Z,8.99
2019-04-05T22:59:31.572Z,8.99
2019-04-05T23:02:00.785Z,9.00
2019-04-05T23:04:30.391Z,9.01
2019-04-05T23:06:59.714Z,9.04
2019-04-05T23:09:29.137Z,9.05
2019-04-05T23:11:58.296Z,9.05
2019-04-05T23:14:27.428Z,9.01
2019-04-05T23:16:56.562Z,8.99
2019-04-05T23:19:25.495Z,8.99
2019-04-05T23:21:54.569Z,8.99
2019-04-05T23:24:23.391Z,8.99
2019-04-05T23:26:52.644Z,8.95
2019-04-05T23:29:22.083Z,8.94
2019-04-05T23:31:51.121Z,8.93
2019-04-05T23:34:20.632Z,8.91
2019-04-05T23:36:50.133Z,8.85
2019-04-05T23:39:18.946Z,8.80
2019-04-05T23:41:48.098Z,8.74
2019-04-05T23:44:17.029Z,8.66
2019-04-05T23:46:46.064Z,8.60
2019-04-05T23:49:15.447Z,8.54
2019-04-05T23:51:44.538Z,8.46
2019-04-05T23:54:13.628Z,8.40
2019-04-05T23:56:42.784Z,8.34
2019-04-05T23:59:12.317Z,8.30
